createdAt,value
2022-10-05T00:00:25.086Z,3.65
2022-10-05T00:03:22.714Z,3.40
2022-10-05T00:06:19.552Z,3.33
2022-10-05T00:09:21.531Z,3.95
2022-10-05T00:12:21.325Z,3.72
2022-10-05T00:15:20.638Z,4.28
2022-10-05T00:18:21.161Z,4.00
2022-10-05T00:21:28.870Z,3.80
2022-10-05T00:24:25.808Z,3.55
2022-10-05T00:27:37.940Z,3.75
2022-10-05T00:30:35.051Z,2.67
2022-10-05T00:33:31.961Z,3.95
2022-10-05T00:36:28.971Z,3.10
2022-10-05T00:39:26.012Z,3.45
2022-10-05T00:42:38.307Z,3.40
2022-10-05T00:45:50.798Z,3.35
2022-10-05T00:49:25.233Z,2.92
2022-10-05T00:52:43.578Z,2.90
2022-10-05T00:55:42.982Z,3.15
2022-10-05T00:58:59.124Z,3.25
2022-10-05T01:02:22.382Z,2.95
2022-10-05T01:05:55.013Z,2.70
2022-10-05T01:09:22.533Z,3.08
2022-10-05T01:12:45.748Z,2.97
2022-10-05T01:16:13.112Z,2.72
2022-10-05T01:19:56.159Z,2.63
2022-10-05T01:23:17.875Z,2.97
2022-10-05T01:26:38.863Z,2.97
2022-10-05T01:29:40.720Z,2.60
2022-10-05T01:32:59.788Z,3.15
2022-10-05T01:36:14.323Z,3.00
2022-10-05T01:39:22.321Z,2.95
2022-10-05T01:42:43.578Z,2.88
2022-10-05T01:46:02.554Z,2.53
2022-10-05T01:49:20.423Z,2.85
2022-10-05T01:52:33.057Z,2.58
2022-10-05T01:55:54.271Z,2.78
2022-10-05T01:59:32.245Z,3.13
2022-10-05T02:02:31.645Z,3.38
2022-10-05T02:05:53.239Z,2.85
2022-10-05T02:09:05.311Z,2.65
2022-10-05T02:12:11.764Z,2.75
2022-10-05T02:15:18.254Z,3.10
2022-10-05T02:18:21.372Z,2.72
2022-10-05T02:21:21.283Z,2.80
2022-10-05T02:24:24.761Z,2.87
2022-10-05T02:27:54.212Z,3.72
2022-10-05T02:31:05.350Z,2.95
2022-10-05T02:34:35.831Z,2.90
2022-10-05T02:37:54.242Z,2.97
2022-10-05T02:40:58.437Z,2.80
2022-10-05T02:44:26.857Z,2.95
2022-10-05T02:47:42.535Z,3.35
2022-10-05T02:51:08.035Z,3.05
2022-10-05T02:54:26.025Z,2.95
2022-10-05T02:57:36.006Z,3.03
2022-10-05T03:00:42.843Z,2.57
2022-10-05T03:03:57.723Z,3.00
2022-10-05T03:07:23.262Z,3.05
2022-10-05T03:10:54.803Z,2.70
2022-10-05T03:14:26.897Z,3.30
2022-10-05T03:17:30.939Z,3.25
2022-10-05T03:20:46.755Z,3.17
2022-10-05T03:24:23.142Z,3.40
2022-10-05T03:27:55.383Z,3.33
2022-10-05T03:31:20.821Z,3.78
2022-10-05T03:34:41.347Z,3.28
2022-10-05T03:37:59.145Z,3.40
2022-10-05T03:41:21.720Z,3.47
2022-10-05T03:45:08.632Z,3.38
2022-10-05T03:48:15.566Z,4.65
2022-10-05T03:51:19.283Z,5.20
2022-10-05T03:54:37.760Z,4.65
2022-10-05T03:57:38.780Z,4.03
2022-10-05T04:00:38.897Z,4.15
2022-10-05T04:03:48.571Z,3.80
2022-10-05T04:06:51.356Z,4.03
2022-10-05T04:09:53.021Z,4.07
2022-10-05T04:13:44.683Z,4.30
2022-10-05T04:17:06.679Z,3.97
2022-10-05T04:20:48.936Z,3.85
2022-10-05T04:24:17.989Z,4.57
2022-10-05T04:27:32.211Z,4.38
2022-10-05T04:30:33.648Z,4.40
2022-10-05T04:33:32.109Z,4.07
2022-10-05T04:36:49.237Z,4.68
2022-10-05T04:40:23.973Z,4.70
2022-10-05T04:44:05.297Z,13.05
2022-10-05T04:47:51.059Z,11.32
2022-10-05T04:51:29.622Z,23.88
2022-10-05T04:55:04.383Z,19.50
2022-10-05T04:58:18.323Z,17.10
2022-10-05T05:01:55.645Z,16.02
2022-10-05T05:05:02.367Z,12.18
2022-10-05T05:08:28.012Z,11.80
2022-10-05T05:11:53.705Z,10.57
2022-10-05T05:15:14.397Z,11.95
2022-10-05T05:18:41.673Z,8.35
2022-10-05T05:22:04.135Z,9.90
2022-10-05T05:25:51.667Z,8.48
2022-10-05T05:29:05.520Z,7.68
2022-10-05T05:32:38.953Z,7.40
2022-10-05T05:36:29.771Z,6.30
2022-10-05T05:39:36.675Z,7.32
2022-10-05T05:43:18.299Z,7.05
2022-10-05T05:47:01.896Z,7.55
2022-10-05T05:50:30.414Z,5.87
2022-10-05T05:53:40.830Z,6.47
2022-10-05T05:56:51.843Z,6.25
2022-10-05T06:00:14.716Z,6.05
2022-10-05T06:03:16.038Z,6.43
2022-10-05T06:06:25.521Z,6.38
2022-10-05T06:09:47.142Z,6.75
2022-10-05T06:12:47.687Z,8.35
2022-10-05T06:16:01.925Z,9.20
2022-10-05T06:19:18.907Z,8.23
2022-10-05T06:22:27.968Z,7.28
2022-10-05T06:25:58.708Z,8.18
2022-10-05T06:29:03.672Z,8.40
2022-10-05T06:32:20.835Z,8.10
2022-10-05T06:36:02.255Z,8.68
2022-10-05T06:39:15.624Z,7.95
2022-10-05T06:42:56.918Z,8.75
2022-10-05T06:46:55.721Z,6.97
2022-10-05T06:50:12.949Z,8.98
2022-10-05T06:53:35.389Z,7.88
2022-10-05T06:56:40.525Z,7.55
2022-10-05T07:00:01.960Z,7.57
2022-10-05T07:03:35.724Z,9.90
2022-10-05T07:07:07.198Z,9.77
2022-10-05T07:10:29.844Z,6.28
2022-10-05T07:14:13.444Z,8.65
2022-10-05T07:17:51.129Z,7.00
2022-10-05T07:21:23.792Z,5.97
2022-10-05T07:24:42.453Z,7.50
2022-10-05T07:28:12.792Z,6.53
2022-10-05T07:31:24.336Z,6.70
2022-10-05T07:34:39.144Z,5.90
2022-10-05T07:38:00.099Z,6.57
2022-10-05T07:44:19.530Z,7.07
2022-10-05T07:47:39.313Z,7.25
2022-10-05T07:50:49.330Z,6.70
2022-10-05T07:54:03.906Z,8.47
2022-10-05T07:57:48.018Z,8.40
2022-10-05T08:01:21.992Z,7.30
2022-10-05T08:04:31.560Z,7.35
2022-10-05T08:07:32.751Z,7.13
2022-10-05T08:10:51.939Z,7.25
2022-10-05T08:14:02.228Z,8.18
2022-10-05T08:17:08.861Z,6.90
2022-10-05T08:20:25.413Z,7.72
2022-10-05T08:23:58.238Z,7.90
2022-10-05T08:27:46.847Z,8.32
2022-10-05T08:31:23.310Z,6.57
2022-10-05T08:34:28.456Z,7.60
2022-10-05T08:37:32.233Z,6.10
2022-10-05T08:41:28.929Z,7.07
2022-10-05T08:45:44.464Z,5.57
2022-10-05T08:49:14.838Z,6.30
2022-10-05T08:52:31.467Z,6.35
2022-10-05T08:56:19.876Z,6.35
2022-10-05T08:59:44.906Z,6.28
2022-10-05T09:03:17.549Z,7.00
2022-10-05T09:06:58.856Z,7.30
2022-10-05T09:10:14.528Z,7.65
2022-10-05T09:13:38.598Z,6.93
2022-10-05T09:16:54.284Z,6.38
2022-10-05T09:20:30.633Z,7.13
2022-10-05T09:23:40.311Z,5.95
2022-10-05T09:27:00.436Z,6.72
2022-10-05T09:30:25.293Z,6.43
2022-10-05T09:33:53.139Z,10.90
2022-10-05T09:37:13.824Z,13.10
2022-10-05T09:40:47.605Z,11.50
2022-10-05T09:44:36.283Z,6.65
2022-10-05T09:48:23.756Z,28.75
2022-10-05T09:52:03.802Z,9.40
2022-10-05T09:55:21.964Z,6.13
2022-10-05T09:59:06.476Z,5.20
2022-10-05T10:02:20.530Z,7.18
2022-10-05T10:06:06.344Z,5.45
2022-10-05T10:09:28.277Z,4.85
2022-10-05T10:13:28.507Z,4.28
2022-10-05T10:17:02.612Z,4.13
2022-10-05T10:20:19.762Z,3.75
2022-10-05T10:23:47.417Z,3.45
2022-10-05T10:27:16.341Z,4.50
2022-10-05T10:30:36.411Z,10.85
2022-10-05T10:34:05.986Z,4.00
2022-10-05T10:37:24.153Z,6.68
2022-10-05T10:40:51.446Z,4.93
2022-10-05T10:44:22.792Z,4.43
2022-10-05T10:47:44.145Z,4.93
2022-10-05T10:51:10.778Z,3.47
2022-10-05T10:54:31.507Z,3.70
2022-10-05T10:58:16.388Z,4.13
2022-10-05T11:01:41.852Z,4.30
2022-10-05T11:05:19.401Z,5.97
2022-10-05T11:08:43.678Z,4.75
2022-10-05T11:11:56.121Z,3.90
2022-10-05T11:14:58.627Z,3.80
2022-10-05T11:18:02.800Z,3.80
2022-10-05T11:21:26.117Z,3.00
2022-10-05T11:24:56.830Z,3.22
2022-10-05T11:28:37.986Z,3.38
2022-10-05T11:32:56.651Z,3.20
2022-10-05T11:36:25.832Z,3.40
2022-10-05T11:39:37.067Z,2.92
2022-10-05T11:43:32.301Z,3.05
2022-10-05T11:47:00.319Z,2.63
2022-10-05T11:50:32.424Z,2.88
2022-10-05T11:54:07.904Z,2.90
2022-10-05T11:57:24.049Z,3.00
2022-10-05T12:00:36.187Z,2.80
2022-10-05T12:03:38.350Z,2.75
2022-10-05T12:07:04.683Z,2.90
2022-10-05T12:10:42.948Z,2.50
2022-10-05T12:14:20.229Z,2.75
2022-10-05T12:17:42.450Z,3.30
2022-10-05T12:21:22.911Z,2.60
2022-10-05T12:24:28.604Z,2.50
2022-10-05T12:27:28.175Z,2.53
2022-10-05T12:30:58.494Z,2.85
2022-10-05T12:34:26.994Z,2.42
2022-10-05T12:38:11.463Z,3.03
2022-10-05T12:41:28.738Z,3.30
2022-10-05T12:45:22.587Z,2.15
2022-10-05T12:48:37.596Z,2.53
2022-10-05T12:52:14.912Z,3.05
2022-10-05T12:55:26.150Z,2.40
2022-10-05T12:58:47.108Z,2.38
2022-10-05T13:01:58.826Z,2.80
2022-10-05T13:05:03.567Z,2.72
2022-10-05T13:08:35.343Z,2.53
2022-10-05T13:11:51.640Z,2.63
2022-10-05T13:15:10.454Z,2.72
2022-10-05T13:18:25.353Z,2.97
2022-10-05T13:22:01.473Z,2.92
2022-10-05T13:25:49.147Z,2.97
2022-10-05T13:29:00.415Z,3.05
2022-10-05T13:32:12.566Z,2.83
2022-10-05T13:35:24.629Z,3.00
2022-10-05T13:38:36.963Z,3.28
2022-10-05T13:42:13.185Z,2.95
2022-10-05T13:45:21.299Z,3.60
2022-10-05T13:49:14.650Z,2.95
2022-10-05T13:52:30.467Z,3.40
2022-10-05T13:55:54.411Z,2.95
2022-10-05T13:59:12.254Z,3.35
2022-10-05T14:02:16.607Z,2.83
2022-10-05T14:05:27.020Z,2.58
2022-10-05T14:08:30.054Z,2.63
2022-10-05T14:11:36.596Z,2.67
2022-10-05T14:14:51.888Z,2.70
2022-10-05T14:17:51.219Z,3.15
2022-10-05T14:21:08.513Z,2.65
2022-10-05T14:24:46.635Z,2.35
2022-10-05T14:28:43.542Z,2.78
2022-10-05T14:32:14.874Z,2.28
2022-10-05T14:35:17.118Z,2.10
2022-10-05T14:38:35.532Z,2.70
2022-10-05T14:41:37.634Z,2.95
2022-10-05T14:44:34.558Z,2.88
2022-10-05T14:47:32.080Z,2.78
2022-10-05T14:50:31.354Z,3.30
2022-10-05T14:53:43.627Z,3.25
2022-10-05T14:56:51.088Z,2.88
2022-10-05T14:59:50.964Z,2.67
2022-10-05T15:03:27.290Z,2.97
2022-10-05T15:07:04.200Z,2.78
2022-10-05T15:10:29.439Z,2.58
2022-10-05T15:13:36.800Z,2.80
2022-10-05T15:16:39.219Z,3.70
2022-10-05T15:20:06.202Z,3.42
2022-10-05T15:23:40.079Z,3.92
2022-10-05T15:27:01.021Z,2.85
2022-10-05T15:30:18.397Z,2.60
2022-10-05T15:33:37.301Z,2.97
2022-10-05T15:36:47.898Z,3.00
2022-10-05T15:39:58.218Z,2.90
2022-10-05T15:43:11.844Z,2.78
2022-10-05T15:46:37.988Z,3.00
2022-10-05T15:50:09.964Z,2.95
2022-10-05T15:53:26.017Z,3.08
2022-10-05T15:56:38.817Z,2.90
2022-10-05T15:59:58.532Z,4.57
2022-10-05T16:03:26.281Z,4.07
2022-10-05T16:07:01.278Z,4.40
2022-10-05T16:10:19.778Z,6.45
2022-10-05T16:13:41.400Z,4.15
2022-10-05T16:16:59.523Z,2.83
2022-10-05T16:20:28.873Z,3.50
2022-10-05T16:24:00.174Z,3.42
2022-10-05T16:27:10.435Z,2.65
2022-10-05T16:30:18.244Z,2.88
2022-10-05T16:33:29.115Z,2.90
2022-10-05T16:37:02.310Z,2.60
2022-10-05T16:40:20.338Z,2.72
2022-10-05T16:43:51.809Z,2.72
2022-10-05T16:47:04.124Z,2.72
2022-10-05T16:50:15.873Z,3.15
2022-10-05T16:53:24.808Z,3.00
2022-10-05T16:56:30.096Z,2.75
2022-10-05T17:00:00.682Z,2.85
2022-10-05T17:03:27.454Z,2.90
2022-10-05T17:07:03.306Z,3.28
2022-10-05T17:10:16.253Z,3.03
2022-10-05T17:13:53.637Z,2.55
2022-10-05T17:17:48.979Z,3.00
2022-10-05T17:21:22.302Z,2.70
2022-10-05T17:24:29.962Z,2.60
2022-10-05T17:27:51.021Z,2.58
2022-10-05T17:30:58.592Z,3.28
2022-10-05T17:34:13.458Z,3.00
2022-10-05T17:37:26.856Z,2.80
2022-10-05T17:40:29.529Z,2.70
2022-10-05T17:43:30.738Z,3.20
2022-10-05T17:46:48.250Z,3.22
2022-10-05T17:50:14.231Z,2.80
2022-10-05T17:53:53.963Z,3.15
2022-10-05T17:56:50.676Z,2.92
2022-10-05T18:00:00.351Z,3.00
2022-10-05T18:02:58.238Z,2.97
2022-10-05T18:06:38.337Z,3.45
2022-10-05T18:09:37.635Z,3.03
2022-10-05T18:13:20.146Z,3.10
2022-10-05T18:17:02.345Z,3.10
2022-10-05T18:20:32.357Z,2.50
2022-10-05T18:23:35.870Z,3.38
2022-10-05T18:27:26.413Z,3.00
2022-10-05T18:30:31.024Z,3.60
2022-10-05T18:33:42.889Z,2.88
2022-10-05T18:37:03.877Z,3.22
2022-10-05T18:40:30.098Z,2.92
2022-10-05T18:43:47.016Z,3.20
2022-10-05T18:47:29.456Z,3.00
2022-10-05T18:50:26.163Z,3.38
2022-10-05T18:54:05.572Z,3.10
2022-10-05T18:57:32.977Z,3.35
2022-10-05T19:01:19.780Z,4.13
2022-10-05T19:05:46.915Z,3.60
2022-10-05T19:09:21.556Z,3.55
2022-10-05T19:12:44.193Z,4.90
2022-10-05T19:16:14.137Z,3.53
2022-10-05T19:19:51.065Z,4.07
2022-10-05T19:23:12.521Z,4.15
2022-10-05T19:26:15.608Z,7.57
2022-10-05T19:30:16.352Z,9.15
2022-10-05T19:34:01.890Z,22.75
2022-10-05T19:37:42.313Z,14.02
2022-10-05T19:40:45.225Z,14.27
2022-10-05T19:44:07.385Z,16.52
2022-10-05T19:47:41.140Z,12.15
2022-10-05T19:50:39.790Z,27.05
2022-10-05T19:53:44.208Z,5.15
2022-10-05T19:57:02.833Z,6.20
2022-10-05T20:00:00.072Z,4.68
2022-10-05T20:03:16.900Z,4.00
2022-10-05T20:06:13.895Z,4.57
2022-10-05T20:09:21.739Z,8.57
2022-10-05T20:12:22.503Z,4.47
2022-10-05T20:19:01.483Z,3.75
2022-10-05T20:22:00.403Z,5.00
2022-10-05T20:25:02.525Z,5.90
2022-10-05T20:27:59.507Z,4.45
2022-10-05T20:30:56.439Z,4.20
2022-10-05T20:33:53.281Z,4.50
2022-10-05T20:36:50.940Z,6.63
2022-10-05T20:39:48.011Z,5.20
2022-10-05T20:42:44.879Z,4.70
2022-10-05T20:45:43.349Z,4.20
2022-10-05T20:48:40.173Z,3.85
2022-10-05T20:51:38.784Z,6.22
2022-10-05T20:54:37.645Z,4.28
2022-10-05T20:57:35.138Z,5.65
2022-10-05T21:00:51.970Z,8.93
2022-10-05T21:03:50.628Z,7.05
2022-10-05T21:06:47.639Z,7.53
2022-10-05T21:09:46.538Z,6.90
2022-10-05T21:12:43.719Z,5.63
2022-10-05T21:15:40.853Z,4.40
2022-10-05T21:18:38.464Z,5.72
2022-10-05T21:21:36.733Z,4.90
2022-10-05T21:24:35.944Z,4.28
2022-10-05T21:27:32.775Z,5.47
2022-10-05T21:30:29.597Z,5.97
2022-10-05T21:33:26.901Z,5.63
2022-10-05T21:36:24.839Z,5.53
2022-10-05T21:39:21.959Z,7.03
2022-10-05T21:42:18.767Z,4.95
2022-10-05T21:45:15.677Z,6.07
2022-10-05T21:48:14.865Z,4.18
2022-10-05T21:51:16.605Z,5.70
2022-10-05T21:54:18.967Z,5.10
2022-10-05T21:57:15.948Z,3.80
2022-10-05T22:00:16.332Z,3.67
2022-10-05T22:03:13.244Z,4.22
2022-10-05T22:06:10.382Z,3.63
2022-10-05T22:09:07.286Z,4.07
2022-10-05T22:12:05.456Z,3.78
2022-10-05T22:15:03.008Z,3.70
2022-10-05T22:18:00.065Z,3.97
2022-10-05T22:20:56.938Z,3.70
2022-10-05T22:23:53.819Z,3.60
2022-10-05T22:26:51.582Z,3.30
2022-10-05T22:29:48.961Z,3.33
2022-10-05T22:32:45.864Z,3.90
2022-10-05T22:35:42.892Z,3.80
2022-10-05T22:38:39.851Z,3.45
2022-10-05T22:41:36.677Z,3.22
2022-10-05T22:44:34.737Z,3.58
2022-10-05T22:47:31.748Z,3.58
2022-10-05T22:50:28.617Z,3.55
2022-10-05T22:53:25.469Z,3.75
2022-10-05T22:56:22.357Z,3.55
2022-10-05T22:59:19.212Z,3.25
2022-10-05T23:02:17.931Z,3.60
2022-10-05T23:05:17.049Z,4.32
2022-10-05T23:08:13.874Z,3.88
2022-10-05T23:11:22.572Z,3.78
2022-10-05T23:14:19.900Z,3.67
2022-10-05T23:17:21.070Z,3.97
2022-10-05T23:20:18.067Z,3.90
2022-10-05T23:23:14.870Z,4.30
2022-10-05T23:26:12.143Z,3.53
2022-10-05T23:29:09.950Z,3.90
2022-10-05T23:32:07.932Z,3.58
2022-10-05T23:35:05.747Z,3.17
2022-10-05T23:38:02.573Z,3.72
2022-10-05T23:40:59.846Z,3.35
2022-10-05T23:43:56.778Z,3.60
2022-10-05T23:46:53.599Z,3.90
2022-10-05T23:49:50.449Z,3.38
2022-10-05T23:52:47.314Z,3.30
2022-10-05T23:55:44.471Z,3.30
2022-10-05T23:58:41.486Z,3.35
